Airfield :
LOGIN :

Register | Disclaimer

   EN    FR    IT 

 










Legend :    VFR   Marginal VFR   IFR   Intensive IFR   Very Intensive IFR
Visi :
Ceiling :
>= 8 km
>= 3000ft
5 to 8 km
1000 to 3000 ft
1500m to 5 km
500 to 1000 ft
800 to 1500m
200 to 500 ft
< 800m
< 200 ft
Symbols :   Thunderstorms  Fog  Heavy snow  Heavy precipitations  Wind > 20 kt
SIGMETs :     Misc.  Thunderstorms  Icing  Turbulence  Mountain Waves  Volcanic Ashes






- Airport Elevation : 1416 ft
- IATA code : ZRH


LSZH - Zurich

CURRENT METAR :
  • 191320Z 21008KT 180V240 8000 RA FEW009 SCT014 BKN035 12/10 Q1016 NOSIG

EXPIRED METARs :
  • 191250Z 21007KT 180V240 9000 -RA FEW010 SCT019 BKN035 12/11 Q1016 TEMPO RA
  • 191220Z 20007KT 7000 RA FEW011 SCT019 BKN038 12/11 Q1016 TEMPO 6000
  • 191150Z 19007KT 160V220 8000 -RA SCT011 BKN020 12/11 Q1015 TEMPO 6000 RA
  • 191120Z 22008KT 9999 -RA FEW012 BKN032 13/11 Q1015 NOSIG

TAF TAF LSZH
Valid from the 19 at 12:00 until the 20 at 18:00 UTC


191125Z 1912/2018 23008KT 9999 RA FEW014 SCT028 BKN036 TX14/1913Z TN11/2004Z TX17/2015Z
PROB30
TEMPO 1912/1916 27010KT
PROB30
TEMPO 1912/2009 BKN014
BECMG 1918/1922 NSW
PROB30
TEMPO 1922/2009 SHRA
ATIS : +41 43 816 2295 (DEP) +41 43 816 2294 (ARR)



MET'MAP, your aeronautical weather chart ! - Copyright ORBIFLY December 2007 - Disclaimer

ORBIFLY MET'MAP TEAM :

Programming & Development : Alexandra Zaïnal
Concept & original design : Baudouin d'Aumeries
Assistance for programming : Marc-Olivier Méhu
Technical & hardware support : Manuel Goepfert

Contact : metmap@orbifly.com




SOURCES & CREDITS :

   NOAA